sensor_id;sensor_type;location;lat;lon;timestamp;temperature;humidity
9448;DHT22;4762;48.128;11.376;2023-02-16T00:01:39;-2.90;99.90
9448;DHT22;4762;48.128;11.376;2023-02-16T00:03:42;-3.00;99.90
9448;DHT22;4762;48.128;11.376;2023-02-16T00:05:44;-3.10;99.90
9448;DHT22;4762;48.128;11.376;2023-02-16T00:07:46;-3.00;99.90
9448;DHT22;4762;48.128;11.376;2023-02-16T00:09:48;-3.00;99.90
9448;DHT22;4762;48.128;11.376;2023-02-16T00:11:51;-3.00;99.90
9448;DHT22;4762;48.128;11.376;2023-02-16T00:13:59;-3.00;99.90
9448;DHT22;4762;48.128;11.376;2023-02-16T00:16:01;-3.10;99.90
9448;DHT22;4762;48.128;11.376;2023-02-16T00:18:03;-3.10;99.90
9448;DHT22;4762;48.128;11.376;2023-02-16T00:20:12;-3.10;99.90
9448;DHT22;4762;48.128;11.376;2023-02-16T00:22:08;-3.10;99.90
9448;DHT22;4762;48.128;11.376;2023-02-16T00:24:11;-3.10;99.90
9448;DHT22;4762;48.128;11.376;2023-02-16T00:26:14;-3.10;99.90
9448;DHT22;4762;48.128;11.376;2023-02-16T00:28:17;-3.10;99.90
9448;DHT22;4762;48.128;11.376;2023-02-16T00:30:19;-3.20;99.90
9448;DHT22;4762;48.128;11.376;2023-02-16T00:32:21;-3.20;99.90
9448;DHT22;4762;48.128;11.376;2023-02-16T00:34:37;-3.10;99.90
9448;DHT22;4762;48.128;11.376;2023-02-16T00:36:38;-3.10;99.90
9448;DHT22;4762;48.128;11.376;2023-02-16T00:38:40;-3.10;99.90
9448;DHT22;4762;48.128;11.376;2023-02-16T00:40:43;-3.20;99.90
9448;DHT22;4762;48.128;11.376;2023-02-16T00:42:45;-3.20;99.90
9448;DHT22;4762;48.128;11.376;2023-02-16T00:44:48;-3.20;99.90
9448;DHT22;4762;48.128;11.376;2023-02-16T00:46:50;-3.10;99.90
9448;DHT22;4762;48.128;11.376;2023-02-16T00:48:52;-3.10;99.90
9448;DHT22;4762;48.128;11.376;2023-02-16T00:50:54;-3.10;99.90
9448;DHT22;4762;48.128;11.376;2023-02-16T00:52:56;-3.10;99.90
9448;DHT22;4762;48.128;11.376;2023-02-16T00:55:00;-3.10;99.90
9448;DHT22;4762;48.128;11.376;2023-02-16T00:57:02;-3.10;99.90
9448;DHT22;4762;48.128;11.376;2023-02-16T00:59:05;-3.10;99.90
9448;DHT22;4762;48.128;11.376;2023-02-16T01:01:09;-3.10;99.90
9448;DHT22;4762;48.128;11.376;2023-02-16T01:03:26;-3.20;99.90
9448;DHT22;4762;48.128;11.376;2023-02-16T01:05:27;-3.20;99.90
9448;DHT22;4762;48.128;11.376;2023-02-16T01:07:29;-3.30;99.90
9448;DHT22;4762;48.128;11.376;2023-02-16T01:09:37;-3.20;99.90
9448;DHT22;4762;48.128;11.376;2023-02-16T01:11:45;-3.20;99.90
9448;DHT22;4762;48.128;11.376;2023-02-16T01:13:48;-3.20;99.90
9448;DHT22;4762;48.128;11.376;2023-02-16T01:15:50;-3.20;99.90
9448;DHT22;4762;48.128;11.376;2023-02-16T01:17:52;-3.20;99.90
9448;DHT22;4762;48.128;11.376;2023-02-16T01:19:54;-3.10;99.90
9448;DHT22;4762;48.128;11.376;2023-02-16T01:21:56;-3.10;99.90
9448;DHT22;4762;48.128;11.376;2023-02-16T01:23:59;-3.00;99.90
9448;DHT22;4762;48.128;11.376;2023-02-16T01:26:01;-3.10;99.90
9448;DHT22;4762;48.128;11.376;2023-02-16T01:28:13;-3.10;99.90
9448;DHT22;4762;48.128;11.376;2023-02-16T01:30:07;-2.90;99.90
9448;DHT22;4762;48.128;11.376;2023-02-16T01:32:09;-2.90;99.90
9448;DHT22;4762;48.128;11.376;2023-02-16T01:34:11;-2.90;99.90
9448;DHT22;4762;48.128;11.376;2023-02-16T01:36:21;-2.90;99.90
9448;DHT22;4762;48.128;11.376;2023-02-16T01:38:23;-2.90;99.90
9448;DHT22;4762;48.128;11.376;2023-02-16T01:40:36;-2.90;99.90
9448;DHT22;4762;48.128;11.376;2023-02-16T01:42:51;-2.90;99.90
9448;DHT22;4762;48.128;11.376;2023-02-16T01:44:57;-2.90;99.90
9448;DHT22;4762;48.128;11.376;2023-02-16T01:47:03;-3.00;99.90
9448;DHT22;4762;48.128;11.376;2023-02-16T01:49:03;-3.00;99.90
9448;DHT22;4762;48.128;11.376;2023-02-16T01:51:23;-3.00;99.90
9448;DHT22;4762;48.128;11.376;2023-02-16T01:53:29;-3.00;99.90
9448;DHT22;4762;48.128;11.376;2023-02-16T01:55:31;-2.90;99.90
9448;DHT22;4762;48.128;11.376;2023-02-16T01:57:45;-3.00;99.90
9448;DHT22;4762;48.128;11.376;2023-02-16T02:00:05;-3.00;99.90
9448;DHT22;4762;48.128;11.376;2023-02-16T02:02:21;-3.10;99.90
9448;DHT22;4762;48.128;11.376;2023-02-16T02:04:24;-3.10;99.90
9448;DHT22;4762;48.128;11.376;2023-02-16T02:06:44;-3.10;99.90
9448;DHT22;4762;48.128;11.376;2023-02-16T02:11:16;-3.20;99.90
9448;DHT22;4762;48.128;11.376;2023-02-16T02:13:21;-3.20;99.90
9448;DHT22;4762;48.128;11.376;2023-02-16T02:15:23;-3.30;99.90
9448;DHT22;4762;48.128;11.376;2023-02-16T02:17:24;-3.30;99.90
9448;DHT22;4762;48.128;11.376;2023-02-16T02:19:27;-3.30;99.90
9448;DHT22;4762;48.128;11.376;2023-02-16T02:24:47;-3.40;99.90
9448;DHT22;4762;48.128;11.376;2023-02-16T02:26:36;-3.40;99.90
9448;DHT22;4762;48.128;11.376;2023-02-16T02:28:40;-3.50;99.90
9448;DHT22;4762;48.128;11.376;2023-02-16T02:30:52;-3.50;99.90
9448;DHT22;4762;48.128;11.376;2023-02-16T02:33:07;-3.50;99.90
9448;DHT22;4762;48.128;11.376;2023-02-16T02:35:28;-3.50;99.90
9448;DHT22;4762;48.128;11.376;2023-02-16T02:37:38;-3.50;99.90
9448;DHT22;4762;48.128;11.376;2023-02-16T02:40:02;-3.40;99.90
9448;DHT22;4762;48.128;11.376;2023-02-16T02:42:23;-3.50;99.90
9448;DHT22;4762;48.128;11.376;2023-02-16T02:44:21;-3.50;99.90
9448;DHT22;4762;48.128;11.376;2023-02-16T02:46:28;-3.60;99.90
9448;DHT22;4762;48.128;11.376;2023-02-16T02:48:29;-3.50;99.90
9448;DHT22;4762;48.128;11.376;2023-02-16T02:50:36;-3.60;99.90
9448;DHT22;4762;48.128;11.376;2023-02-16T02:52:35;-3.60;99.90
9448;DHT22;4762;48.128;11.376;2023-02-16T02:54:37;-3.60;99.90
9448;DHT22;4762;48.128;11.376;2023-02-16T02:56:49;-3.50;99.90
9448;DHT22;4762;48.128;11.376;2023-02-16T02:58:56;-3.50;99.90
9448;DHT22;4762;48.128;11.376;2023-02-16T03:01:04;-3.50;99.90
9448;DHT22;4762;48.128;11.376;2023-02-16T03:05:25;-3.40;99.90
9448;DHT22;4762;48.128;11.376;2023-02-16T03:07:26;-3.50;99.90
9448;DHT22;4762;48.128;11.376;2023-02-16T03:09:29;-3.50;99.90
9448;DHT22;4762;48.128;11.376;2023-02-16T03:11:31;-3.50;99.90
9448;DHT22;4762;48.128;11.376;2023-02-16T03:13:42;-3.60;99.90
9448;DHT22;4762;48.128;11.376;2023-02-16T03:15:44;-3.60;99.90
9448;DHT22;4762;48.128;11.376;2023-02-16T03:17:45;-3.60;99.90
9448;DHT22;4762;48.128;11.376;2023-02-16T03:19:53;-3.70;99.90
9448;DHT22;4762;48.128;11.376;2023-02-16T03:22:01;-3.70;99.90
9448;DHT22;4762;48.128;11.376;2023-02-16T03:24:11;-3.70;99.90
9448;DHT22;4762;48.128;11.376;2023-02-16T03:26:17;-3.70;99.90
9448;DHT22;4762;48.128;11.376;2023-02-16T03:28:26;-3.70;99.90
9448;DHT22;4762;48.128;11.376;2023-02-16T03:30:33;-3.70;99.90
9448;DHT22;4762;48.128;11.376;2023-02-16T03:32:35;-3.70;99.90
9448;DHT22;4762;48.128;11.376;2023-02-16T03:34:37;-3.70;99.90
9448;DHT22;4762;48.128;11.376;2023-02-16T03:36:40;-3.70;99.90
9448;DHT22;4762;48.128;11.376;2023-02-16T03:38:42;-3.70;99.90
9448;DHT22;4762;48.128;11.376;2023-02-16T03:40:44;-3.70;99.90
9448;DHT22;4762;48.128;11.376;2023-02-16T03:42:49;-3.70;99.90
9448;DHT22;4762;48.128;11.376;2023-02-16T03:44:51;-3.80;99.90
9448;DHT22;4762;48.128;11.376;2023-02-16T03:46:53;-3.80;99.90
9448;DHT22;4762;48.128;11.376;2023-02-16T03:48:55;-3.80;99.90
9448;DHT22;4762;48.128;11.376;2023-02-16T03:50:57;-3.80;99.90
9448;DHT22;4762;48.128;11.376;2023-02-16T03:53:05;-3.90;99.90
9448;DHT22;4762;48.128;11.376;2023-02-16T03:55:08;-3.90;99.90
9448;DHT22;4762;48.128;11.376;2023-02-16T03:57:10;-3.90;99.90
9448;DHT22;4762;48.128;11.376;2023-02-16T03:59:12;-3.90;99.90
9448;DHT22;4762;48.128;11.376;2023-02-16T04:01:14;-3.80;99.90
9448;DHT22;4762;48.128;11.376;2023-02-16T04:03:17;-3.70;99.90
9448;DHT22;4762;48.128;11.376;2023-02-16T04:05:19;-3.70;99.90
9448;DHT22;4762;48.128;11.376;2023-02-16T04:07:21;-3.80;99.90
9448;DHT22;4762;48.128;11.376;2023-02-16T04:09:23;-3.70;99.90
9448;DHT22;4762;48.128;11.376;2023-02-16T04:11:26;-3.70;99.90
9448;DHT22;4762;48.128;11.376;2023-02-16T04:13:43;-3.70;99.90
9448;DHT22;4762;48.128;11.376;2023-02-16T04:15:46;-3.80;99.90
9448;DHT22;4762;48.128;11.376;2023-02-16T04:17:48;-3.80;99.90
9448;DHT22;4762;48.128;11.376;2023-02-16T04:19:50;-3.80;99.90
9448;DHT22;4762;48.128;11.376;2023-02-16T04:21:52;-3.80;99.90
9448;DHT22;4762;48.128;11.376;2023-02-16T04:23:55;-3.80;99.90
9448;DHT22;4762;48.128;11.376;2023-02-16T04:25:58;-3.90;99.90
9448;DHT22;4762;48.128;11.376;2023-02-16T04:28:00;-3.90;99.90
9448;DHT22;4762;48.128;11.376;2023-02-16T04:30:03;-3.90;99.90
9448;DHT22;4762;48.128;11.376;2023-02-16T04:32:05;-4.00;99.90
9448;DHT22;4762;48.128;11.376;2023-02-16T04:34:07;-4.10;99.90
9448;DHT22;4762;48.128;11.376;2023-02-16T04:36:18;-4.10;99.90
9448;DHT22;4762;48.128;11.376;2023-02-16T04:38:20;-4.10;99.90
9448;DHT22;4762;48.128;11.376;2023-02-16T04:40:22;-4.10;99.90
9448;DHT22;4762;48.128;11.376;2023-02-16T04:42:24;-4.10;99.90
9448;DHT22;4762;48.128;11.376;2023-02-16T04:44:27;-4.00;99.90
9448;DHT22;4762;48.128;11.376;2023-02-16T04:46:29;-4.10;99.90
9448;DHT22;4762;48.128;11.376;2023-02-16T04:48:31;-4.10;99.90
9448;DHT22;4762;48.128;11.376;2023-02-16T04:50:33;-4.10;99.90
9448;DHT22;4762;48.128;11.376;2023-02-16T04:52:36;-4.00;99.90
9448;DHT22;4762;48.128;11.376;2023-02-16T04:54:38;-4.00;99.90
9448;DHT22;4762;48.128;11.376;2023-02-16T04:56:44;-4.00;99.90
9448;DHT22;4762;48.128;11.376;2023-02-16T04:58:45;-4.10;99.90
9448;DHT22;4762;48.128;11.376;2023-02-16T05:00:48;-4.10;99.90
9448;DHT22;4762;48.128;11.376;2023-02-16T05:02:50;-4.10;99.90
9448;DHT22;4762;48.128;11.376;2023-02-16T05:04:52;-4.10;99.90
9448;DHT22;4762;48.128;11.376;2023-02-16T05:06:54;-4.10;99.90
9448;DHT22;4762;48.128;11.376;2023-02-16T05:08:57;-4.10;99.90
9448;DHT22;4762;48.128;11.376;2023-02-16T05:10:59;-4.00;99.90
9448;DHT22;4762;48.128;11.376;2023-02-16T05:13:08;-4.00;99.90
9448;DHT22;4762;48.128;11.376;2023-02-16T05:15:15;-4.00;99.90
9448;DHT22;4762;48.128;11.376;2023-02-16T05:17:19;-4.00;99.90
9448;DHT22;4762;48.128;11.376;2023-02-16T05:19:20;-4.00;99.90
9448;DHT22;4762;48.128;11.376;2023-02-16T05:21:22;-4.00;99.90
9448;DHT22;4762;48.128;11.376;2023-02-16T05:23:30;-4.00;99.90
9448;DHT22;4762;48.128;11.376;2023-02-16T05:25:32;-3.90;99.90
9448;DHT22;4762;48.128;11.376;2023-02-16T05:27:34;-4.00;99.90
9448;DHT22;4762;48.128;11.376;2023-02-16T05:29:37;-4.00;99.90
9448;DHT22;4762;48.128;11.376;2023-02-16T05:31:39;-4.00;99.90
9448;DHT22;4762;48.128;11.376;2023-02-16T05:33:41;-4.10;99.90
9448;DHT22;4762;48.128;11.376;2023-02-16T05:35:43;-4.00;99.90
9448;DHT22;4762;48.128;11.376;2023-02-16T05:37:45;-4.10;99.90
9448;DHT22;4762;48.128;11.376;2023-02-16T05:39:48;-4.10;99.90
9448;DHT22;4762;48.128;11.376;2023-02-16T05:41:50;-4.10;99.90
9448;DHT22;4762;48.128;11.376;2023-02-16T05:43:54;-4.10;99.90
9448;DHT22;4762;48.128;11.376;2023-02-16T05:45:54;-4.00;99.90
9448;DHT22;4762;48.128;11.376;2023-02-16T05:47:57;-4.00;99.90
9448;DHT22;4762;48.128;11.376;2023-02-16T05:49:59;-3.90;99.90
9448;DHT22;4762;48.128;11.376;2023-02-16T05:52:01;-3.90;99.90
9448;DHT22;4762;48.128;11.376;2023-02-16T05:54:04;-3.90;99.90
9448;DHT22;4762;48.128;11.376;2023-02-16T05:56:06;-3.90;99.90
9448;DHT22;4762;48.128;11.376;2023-02-16T05:58:08;-3.80;99.90
9448;DHT22;4762;48.128;11.376;2023-02-16T06:00:14;-3.70;99.90
9448;DHT22;4762;48.128;11.376;2023-02-16T06:02:16;-3.60;99.90
9448;DHT22;4762;48.128;11.376;2023-02-16T06:04:21;-3.60;99.90
9448;DHT22;4762;48.128;11.376;2023-02-16T06:06:23;-3.70;99.90
9448;DHT22;4762;48.128;11.376;2023-02-16T06:08:25;-3.70;99.90
9448;DHT22;4762;48.128;11.376;2023-02-16T06:10:27;-3.60;99.90
9448;DHT22;4762;48.128;11.376;2023-02-16T06:12:30;-3.60;99.90
9448;DHT22;4762;48.128;11.376;2023-02-16T06:14:32;-3.50;99.90
9448;DHT22;4762;48.128;11.376;2023-02-16T06:16:35;-3.60;99.90
9448;DHT22;4762;48.128;11.376;2023-02-16T06:18:36;-3.50;99.90
9448;DHT22;4762;48.128;11.376;2023-02-16T06:20:39;-3.40;99.90
9448;DHT22;4762;48.128;11.376;2023-02-16T06:22:41;-3.30;99.90
9448;DHT22;4762;48.128;11.376;2023-02-16T06:24:43;-3.20;99.90
9448;DHT22;4762;48.128;11.376;2023-02-16T06:26:45;-3.10;99.90
9448;DHT22;4762;48.128;11.376;2023-02-16T06:28:48;-3.10;99.90
9448;DHT22;4762;48.128;11.376;2023-02-16T06:30:50;-2.90;99.90
9448;DHT22;4762;48.128;11.376;2023-02-16T06:32:52;-2.80;99.90
9448;DHT22;4762;48.128;11.376;2023-02-16T06:34:54;-2.70;99.90
9448;DHT22;4762;48.128;11.376;2023-02-16T06:36:57;-2.60;99.90
9448;DHT22;4762;48.128;11.376;2023-02-16T06:38:59;-2.60;99.90
9448;DHT22;4762;48.128;11.376;2023-02-16T06:41:01;-2.50;99.90
9448;DHT22;4762;48.128;11.376;2023-02-16T06:43:03;-2.50;99.90
9448;DHT22;4762;48.128;11.376;2023-02-16T06:45:06;-2.50;99.90
9448;DHT22;4762;48.128;11.376;2023-02-16T06:47:09;-2.40;99.90
9448;DHT22;4762;48.128;11.376;2023-02-16T06:49:11;-2.30;99.90
9448;DHT22;4762;48.128;11.376;2023-02-16T06:51:15;-2.00;99.90
9448;DHT22;4762;48.128;11.376;2023-02-16T06:53:15;-1.70;99.90
9448;DHT22;4762;48.128;11.376;2023-02-16T06:55:18;-1.40;99.90
9448;DHT22;4762;48.128;11.376;2023-02-16T06:57:20;-1.30;99.90
9448;DHT22;4762;48.128;11.376;2023-02-16T06:59:22;-1.20;99.90
9448;DHT22;4762;48.128;11.376;2023-02-16T07:01:24;-1.00;99.90
9448;DHT22;4762;48.128;11.376;2023-02-16T07:03:27;-1.00;99.90
9448;DHT22;4762;48.128;11.376;2023-02-16T07:05:29;-0.90;99.90
9448;DHT22;4762;48.128;11.376;2023-02-16T07:07:31;-0.70;99.90
9448;DHT22;4762;48.128;11.376;2023-02-16T07:09:36;-0.50;99.90
9448;DHT22;4762;48.128;11.376;2023-02-16T07:11:38;-0.10;99.90
9448;DHT22;4762;48.128;11.376;2023-02-16T07:13:41;0.20;99.90
9448;DHT22;4762;48.128;11.376;2023-02-16T07:15:43;0.60;99.90
9448;DHT22;4762;48.128;11.376;2023-02-16T07:17:45;1.00;99.90
9448;DHT22;4762;48.128;11.376;2023-02-16T07:19:47;1.00;99.90
9448;DHT22;4762;48.128;11.376;2023-02-16T07:21:49;0.90;99.90
9448;DHT22;4762;48.128;11.376;2023-02-16T07:23:52;0.80;99.90
9448;DHT22;4762;48.128;11.376;2023-02-16T07:25:54;0.80;99.90
9448;DHT22;4762;48.128;11.376;2023-02-16T07:27:56;0.70;99.90
9448;DHT22;4762;48.128;11.376;2023-02-16T07:29:59;0.60;99.90
9448;DHT22;4762;48.128;11.376;2023-02-16T07:32:01;0.70;99.90
9448;DHT22;4762;48.128;11.376;2023-02-16T07:34:03;0.80;99.90
9448;DHT22;4762;48.128;11.376;2023-02-16T07:36:06;0.90;99.90
9448;DHT22;4762;48.128;11.376;2023-02-16T07:38:08;1.00;99.90
9448;DHT22;4762;48.128;11.376;2023-02-16T07:40:11;1.10;99.90
9448;DHT22;4762;48.128;11.376;2023-02-16T07:42:13;1.20;99.90
9448;DHT22;4762;48.128;11.376;2023-02-16T07:44:16;1.30;99.90
9448;DHT22;4762;48.128;11.376;2023-02-16T07:46:18;1.50;99.90
9448;DHT22;4762;48.128;11.376;2023-02-16T07:48:21;1.70;99.90
9448;DHT22;4762;48.128;11.376;2023-02-16T07:50:23;1.80;99.90
9448;DHT22;4762;48.128;11.376;2023-02-16T07:52:25;1.90;99.90
9448;DHT22;4762;48.128;11.376;2023-02-16T07:54:27;1.90;99.90
9448;DHT22;4762;48.128;11.376;2023-02-16T07:56:30;1.80;99.90
9448;DHT22;4762;48.128;11.376;2023-02-16T07:58:32;1.80;99.90
9448;DHT22;4762;48.128;11.376;2023-02-16T08:00:34;1.80;99.90
9448;DHT22;4762;48.128;11.376;2023-02-16T08:02:36;1.80;99.90
9448;DHT22;4762;48.128;11.376;2023-02-16T08:04:38;2.00;99.90
9448;DHT22;4762;48.128;11.376;2023-02-16T08:06:41;2.30;99.90
9448;DHT22;4762;48.128;11.376;2023-02-16T08:08:43;2.60;99.90
9448;DHT22;4762;48.128;11.376;2023-02-16T08:10:45;2.70;99.90
9448;DHT22;4762;48.128;11.376;2023-02-16T08:12:49;2.90;99.90
9448;DHT22;4762;48.128;11.376;2023-02-16T08:14:52;3.10;99.90
9448;DHT22;4762;48.128;11.376;2023-02-16T08:16:54;3.30;99.70
9448;DHT22;4762;48.128;11.376;2023-02-16T08:18:57;3.50;99.90
9448;DHT22;4762;48.128;11.376;2023-02-16T08:21:05;3.70;99.20
9448;DHT22;4762;48.128;11.376;2023-02-16T08:23:01;4.00;98.10
9448;DHT22;4762;48.128;11.376;2023-02-16T08:25:03;4.10;96.90
9448;DHT22;4762;48.128;11.376;2023-02-16T08:27:05;4.20;98.00
9448;DHT22;4762;48.128;11.376;2023-02-16T08:29:08;4.40;97.60
9448;DHT22;4762;48.128;11.376;2023-02-16T08:31:13;4.60;96.90
9448;DHT22;4762;48.128;11.376;2023-02-16T08:33:14;4.80;94.70
9448;DHT22;4762;48.128;11.376;2023-02-16T08:35:17;4.90;95.90
9448;DHT22;4762;48.128;11.376;2023-02-16T08:37:19;5.00;94.60
9448;DHT22;4762;48.128;11.376;2023-02-16T08:39:22;5.00;94.60
9448;DHT22;4762;48.128;11.376;2023-02-16T08:41:26;5.00;94.60
9448;DHT22;4762;48.128;11.376;2023-02-16T08:43:26;4.90;94.50
9448;DHT22;4762;48.128;11.376;2023-02-16T08:45:28;5.00;94.30
9448;DHT22;4762;48.128;11.376;2023-02-16T08:47:30;5.00;94.10
9448;DHT22;4762;48.128;11.376;2023-02-16T08:49:32;5.00;93.30
9448;DHT22;4762;48.128;11.376;2023-02-16T08:51:35;5.00;92.20
9448;DHT22;4762;48.128;11.376;2023-02-16T08:53:37;5.20;93.10
9448;DHT22;4762;48.128;11.376;2023-02-16T08:55:40;5.30;93.00
9448;DHT22;4762;48.128;11.376;2023-02-16T08:57:42;5.40;92.00
9448;DHT22;4762;48.128;11.376;2023-02-16T08:59:44;5.40;92.50
9448;DHT22;4762;48.128;11.376;2023-02-16T09:01:47;5.50;91.80
9448;DHT22;4762;48.128;11.376;2023-02-16T09:03:49;5.60;90.90
9448;DHT22;4762;48.128;11.376;2023-02-16T09:05:51;5.80;91.90
9448;DHT22;4762;48.128;11.376;2023-02-16T09:07:53;5.90;91.20
9448;DHT22;4762;48.128;11.376;2023-02-16T09:09:56;6.00;91.20
9448;DHT22;4762;48.128;11.376;2023-02-16T09:11:58;6.30;90.00
9448;DHT22;4762;48.128;11.376;2023-02-16T09:14:00;6.50;90.20
9448;DHT22;4762;48.128;11.376;2023-02-16T09:16:03;6.80;88.70
9448;DHT22;4762;48.128;11.376;2023-02-16T09:18:05;6.90;87.90
9448;DHT22;4762;48.128;11.376;2023-02-16T09:20:12;7.10;82.90
9448;DHT22;4762;48.128;11.376;2023-02-16T09:22:14;7.40;85.00
9448;DHT22;4762;48.128;11.376;2023-02-16T09:24:16;7.80;82.10
9448;DHT22;4762;48.128;11.376;2023-02-16T09:26:19;8.10;77.90
9448;DHT22;4762;48.128;11.376;2023-02-16T09:28:21;8.30;79.10
9448;DHT22;4762;48.128;11.376;2023-02-16T09:30:23;8.80;75.40
9448;DHT22;4762;48.128;11.376;2023-02-16T09:32:28;8.90;73.90
9448;DHT22;4762;48.128;11.376;2023-02-16T09:34:29;8.90;73.20
9448;DHT22;4762;48.128;11.376;2023-02-16T09:36:32;9.10;73.10
9448;DHT22;4762;48.128;11.376;2023-02-16T09:38:34;9.00;72.20
9448;DHT22;4762;48.128;11.376;2023-02-16T09:40:36;9.10;71.60
9448;DHT22;4762;48.128;11.376;2023-02-16T09:42:49;9.10;69.80
9448;DHT22;4762;48.128;11.376;2023-02-16T09:44:53;9.20;72.80
9448;DHT22;4762;48.128;11.376;2023-02-16T09:46:53;9.30;69.50
9448;DHT22;4762;48.128;11.376;2023-02-16T09:48:55;9.40;68.70
9448;DHT22;4762;48.128;11.376;2023-02-16T09:50:57;9.60;68.50
9448;DHT22;4762;48.128;11.376;2023-02-16T09:53:13;9.80;67.70
9448;DHT22;4762;48.128;11.376;2023-02-16T09:55:13;9.90;66.00
9448;DHT22;4762;48.128;11.376;2023-02-16T09:57:22;9.90;65.60
9448;DHT22;4762;48.128;11.376;2023-02-16T09:59:42;10.40;65.80
9448;DHT22;4762;48.128;11.376;2023-02-16T10:06:41;10.50;61.80
9448;DHT22;4762;48.128;11.376;2023-02-16T10:08:40;10.50;62.60
9448;DHT22;4762;48.128;11.376;2023-02-16T10:10:47;10.60;61.10
9448;DHT22;4762;48.128;11.376;2023-02-16T10:12:49;10.70;60.00
9448;DHT22;4762;48.128;11.376;2023-02-16T10:14:51;10.60;60.00
9448;DHT22;4762;48.128;11.376;2023-02-16T10:19:01;10.40;60.10
9448;DHT22;4762;48.128;11.376;2023-02-16T10:21:05;10.80;59.90
9448;DHT22;4762;48.128;11.376;2023-02-16T10:23:12;11.40;57.50
9448;DHT22;4762;48.128;11.376;2023-02-16T10:25:14;11.60;55.20
9448;DHT22;4762;48.128;11.376;2023-02-16T10:27:15;11.80;54.10
9448;DHT22;4762;48.128;11.376;2023-02-16T10:29:18;12.10;53.70
9448;DHT22;4762;48.128;11.376;2023-02-16T10:31:24;12.20;53.40
9448;DHT22;4762;48.128;11.376;2023-02-16T10:33:42;12.30;49.90
9448;DHT22;4762;48.128;11.376;2023-02-16T10:35:45;12.10;51.40
9448;DHT22;4762;48.128;11.376;2023-02-16T10:37:54;12.10;51.40
9448;DHT22;4762;48.128;11.376;2023-02-16T10:40:00;12.40;51.70
9448;DHT22;4762;48.128;11.376;2023-02-16T10:42:01;12.10;50.80
9448;DHT22;4762;48.128;11.376;2023-02-16T10:44:35;12.30;51.70
9448;DHT22;4762;48.128;11.376;2023-02-16T10:46:21;12.00;50.50
9448;DHT22;4762;48.128;11.376;2023-02-16T10:48:22;11.80;51.70
9448;DHT22;4762;48.128;11.376;2023-02-16T10:51:01;11.60;51.70
9448;DHT22;4762;48.128;11.376;2023-02-16T10:52:46;11.60;52.90
9448;DHT22;4762;48.128;11.376;2023-02-16T10:54:48;11.70;54.50
9448;DHT22;4762;48.128;11.376;2023-02-16T10:56:52;12.20;52.10
9448;DHT22;4762;48.128;11.376;2023-02-16T10:58:53;12.40;51.80
9448;DHT22;4762;48.128;11.376;2023-02-16T11:01:02;12.30;50.90
9448;DHT22;4762;48.128;11.376;2023-02-16T11:03:02;12.30;49.70
9448;DHT22;4762;48.128;11.376;2023-02-16T11:05:29;12.50;49.00
9448;DHT22;4762;48.128;11.376;2023-02-16T11:07:30;12.50;48.70
9448;DHT22;4762;48.128;11.376;2023-02-16T11:09:32;12.40;48.90
9448;DHT22;4762;48.128;11.376;2023-02-16T11:11:36;12.30;47.70
9448;DHT22;4762;48.128;11.376;2023-02-16T11:13:37;12.30;48.20
9448;DHT22;4762;48.128;11.376;2023-02-16T11:15:39;12.40;49.40
9448;DHT22;4762;48.128;11.376;2023-02-16T11:18:03;12.70;47.80
9448;DHT22;4762;48.128;11.376;2023-02-16T11:20:05;12.40;46.50
9448;DHT22;4762;48.128;11.376;2023-02-16T11:22:09;12.80;48.50
9448;DHT22;4762;48.128;11.376;2023-02-16T11:24:09;13.10;45.10
9448;DHT22;4762;48.128;11.376;2023-02-16T11:26:26;13.10;45.00
9448;DHT22;4762;48.128;11.376;2023-02-16T11:28:30;13.10;45.70
9448;DHT22;4762;48.128;11.376;2023-02-16T11:30:34;13.50;44.50
9448;DHT22;4762;48.128;11.376;2023-02-16T11:32:35;13.80;44.30
9448;DHT22;4762;48.128;11.376;2023-02-16T11:34:39;14.00;42.60
9448;DHT22;4762;48.128;11.376;2023-02-16T11:36:41;14.10;40.80
9448;DHT22;4762;48.128;11.376;2023-02-16T11:38:43;13.70;41.80
9448;DHT22;4762;48.128;11.376;2023-02-16T11:40:49;13.80;42.00
9448;DHT22;4762;48.128;11.376;2023-02-16T11:42:48;13.70;41.60
9448;DHT22;4762;48.128;11.376;2023-02-16T11:44:50;13.40;41.00
9448;DHT22;4762;48.128;11.376;2023-02-16T11:46:52;13.20;40.60
9448;DHT22;4762;48.128;11.376;2023-02-16T11:48:54;13.00;40.70
9448;DHT22;4762;48.128;11.376;2023-02-16T11:51:03;13.30;40.50
9448;DHT22;4762;48.128;11.376;2023-02-16T11:53:22;13.30;40.80
9448;DHT22;4762;48.128;11.376;2023-02-16T11:55:28;13.80;41.00
9448;DHT22;4762;48.128;11.376;2023-02-16T11:57:31;13.70;40.00
9448;DHT22;4762;48.128;11.376;2023-02-16T11:59:33;13.80;40.90
9448;DHT22;4762;48.128;11.376;2023-02-16T12:04:06;14.10;40.40
9448;DHT22;4762;48.128;11.376;2023-02-16T12:08:30;13.90;40.30
9448;DHT22;4762;48.128;11.376;2023-02-16T12:10:34;14.00;39.00
9448;DHT22;4762;48.128;11.376;2023-02-16T12:12:38;14.30;39.40
9448;DHT22;4762;48.128;11.376;2023-02-16T12:14:44;14.40;39.50
9448;DHT22;4762;48.128;11.376;2023-02-16T12:16:48;14.50;39.70
9448;DHT22;4762;48.128;11.376;2023-02-16T12:18:58;14.10;37.30
9448;DHT22;4762;48.128;11.376;2023-02-16T12:21:01;13.70;38.40
9448;DHT22;4762;48.128;11.376;2023-02-16T12:23:23;13.70;37.80
9448;DHT22;4762;48.128;11.376;2023-02-16T12:25:24;13.50;39.00
9448;DHT22;4762;48.128;11.376;2023-02-16T12:27:30;13.70;38.40
9448;DHT22;4762;48.128;11.376;2023-02-16T12:29:36;13.90;38.50
9448;DHT22;4762;48.128;11.376;2023-02-16T12:34:02;14.00;37.20
9448;DHT22;4762;48.128;11.376;2023-02-16T12:36:19;14.20;37.30
9448;DHT22;4762;48.128;11.376;2023-02-16T12:38:42;14.30;36.30
9448;DHT22;4762;48.128;11.376;2023-02-16T12:45:24;14.00;36.70
9448;DHT22;4762;48.128;11.376;2023-02-16T12:47:29;14.30;37.10
9448;DHT22;4762;48.128;11.376;2023-02-16T12:49:35;14.30;37.60
9448;DHT22;4762;48.128;11.376;2023-02-16T12:51:38;14.30;36.90
9448;DHT22;4762;48.128;11.376;2023-02-16T12:53:44;14.50;36.30
9448;DHT22;4762;48.128;11.376;2023-02-16T12:55:46;14.40;35.70
9448;DHT22;4762;48.128;11.376;2023-02-16T12:57:59;14.40;36.30
9448;DHT22;4762;48.128;11.376;2023-02-16T13:00:24;14.70;37.00
9448;DHT22;4762;48.128;11.376;2023-02-16T13:02:30;15.00;35.80
9448;DHT22;4762;48.128;11.376;2023-02-16T13:06:46;14.50;35.70
9448;DHT22;4762;48.128;11.376;2023-02-16T13:08:50;14.50;36.50
9448;DHT22;4762;48.128;11.376;2023-02-16T13:11:04;14.90;36.30
9448;DHT22;4762;48.128;11.376;2023-02-16T13:13:11;15.10;37.50
9448;DHT22;4762;48.128;11.376;2023-02-16T13:15:15;15.20;37.60
9448;DHT22;4762;48.128;11.376;2023-02-16T13:17:18;15.80;35.60
9448;DHT22;4762;48.128;11.376;2023-02-16T13:19:19;16.00;36.40
9448;DHT22;4762;48.128;11.376;2023-02-16T13:23:36;16.10;34.10
9448;DHT22;4762;48.128;11.376;2023-02-16T13:25:57;15.90;34.50
9448;DHT22;4762;48.128;11.376;2023-02-16T13:36:57;15.60;33.00
9448;DHT22;4762;48.128;11.376;2023-02-16T13:41:15;15.60;32.50
9448;DHT22;4762;48.128;11.376;2023-02-16T13:45:36;15.50;33.30
9448;DHT22;4762;48.128;11.376;2023-02-16T13:47:37;15.50;31.90
9448;DHT22;4762;48.128;11.376;2023-02-16T13:49:39;15.10;33.10
9448;DHT22;4762;48.128;11.376;2023-02-16T13:51:42;14.70;33.50
9448;DHT22;4762;48.128;11.376;2023-02-16T13:53:49;14.60;34.80
9448;DHT22;4762;48.128;11.376;2023-02-16T13:55:46;14.90;33.60
9448;DHT22;4762;48.128;11.376;2023-02-16T13:58:02;14.80;33.60
9448;DHT22;4762;48.128;11.376;2023-02-16T14:00:03;14.90;34.00
9448;DHT22;4762;48.128;11.376;2023-02-16T14:02:10;14.90;33.70
9448;DHT22;4762;48.128;11.376;2023-02-16T14:04:58;14.70;33.50
9448;DHT22;4762;48.128;11.376;2023-02-16T14:06:30;15.00;33.40